createdAt,value
2017-05-14T00:00:24.774Z,96.66
2017-05-14T00:01:33.733Z,96.08
2017-05-14T00:02:42.696Z,96.27
2017-05-14T00:03:52.234Z,96.27
2017-05-14T00:05:01.243Z,96.56
2017-05-14T00:06:10.202Z,96.56
2017-05-14T00:07:19.159Z,96.47
2017-05-14T00:08:28.120Z,95.89
2017-05-14T00:09:37.476Z,96.56
2017-05-14T00:10:46.768Z,96.75
2017-05-14T00:11:55.730Z,97.14
2017-05-14T00:13:04.689Z,96.75
2017-05-14T00:14:13.650Z,96.56
2017-05-14T00:15:22.918Z,96.47
2017-05-14T00:16:31.890Z,96.47
2017-05-14T00:17:40.938Z,96.37
2017-05-14T00:18:49.984Z,96.66
2017-05-14T00:19:58.944Z,96.47
2017-05-14T00:21:08.201Z,96.56
2017-05-14T00:22:17.170Z,96.66
2017-05-14T00:23:26.130Z,96.94
2017-05-14T00:24:35.410Z,96.94
2017-05-14T00:25:44.457Z,96.94
2017-05-14T00:26:53.670Z,97.04
2017-05-14T00:28:02.634Z,96.66
2017-05-14T00:29:11.595Z,96.85
2017-05-14T00:30:20.553Z,96.94
2017-05-14T00:31:29.510Z,97.04
2017-05-14T00:32:38.785Z,96.85
2017-05-14T00:33:47.839Z,96.85
2017-05-14T00:34:56.806Z,96.85
2017-05-14T00:36:05.773Z,96.94
2017-05-14T00:37:14.817Z,97.71
2017-05-14T00:38:24.076Z,97.04
2017-05-14T00:39:33.207Z,97.04
2017-05-14T00:40:42.174Z,97.04
2017-05-14T00:41:51.466Z,97.14
2017-05-14T00:43:00.425Z,97.52
2017-05-14T00:44:09.687Z,97.42
2017-05-14T00:45:18.646Z,97.52
2017-05-14T00:46:27.610Z,97.71
2017-05-14T00:47:36.664Z,97.81
2017-05-14T00:48:45.626Z,97.61
2017-05-14T00:49:54.978Z,97.04
2017-05-14T00:51:03.938Z,96.37
2017-05-14T00:52:12.897Z,96.47
2017-05-14T00:53:21.944Z,96.22
2017-05-14T00:54:30.903Z,96.61
2017-05-14T00:55:40.168Z,96.66
2017-05-14T00:56:49.215Z,96.51
2017-05-14T00:57:58.171Z,96.7
2017-05-14T00:59:07.125Z,96.42
2017-05-14T01:00:16.085Z,96.8
2017-05-14T01:01:25.346Z,96.89
2017-05-14T01:02:34.302Z,96.61
2017-05-14T01:03:43.273Z,96.61
2017-05-14T01:04:52.235Z,96.89
2017-05-14T01:06:01.193Z,97.47
2017-05-14T01:07:10.494Z,97.09
2017-05-14T01:08:19.553Z,97.09
2017-05-14T01:09:28.524Z,96.89
2017-05-14T01:10:37.484Z,96.8
2017-05-14T01:11:46.441Z,96.7
2017-05-14T01:12:55.654Z,96.61
2017-05-14T01:14:04.615Z,96.32
2017-05-14T01:15:13.572Z,96.61
2017-05-14T01:16:22.533Z,96.61
2017-05-14T01:17:31.496Z,96.42
2017-05-14T01:18:40.802Z,96.61
2017-05-14T01:19:49.759Z,96.42
2017-05-14T01:20:58.724Z,97.18
2017-05-14T01:22:07.686Z,96.42
2017-05-14T01:23:16.698Z,96.42
2017-05-14T01:24:25.956Z,96.42
2017-05-14T01:25:34.921Z,96.51
2017-05-14T01:26:43.881Z,96.61
2017-05-14T01:27:53.163Z,96.32
2017-05-14T01:29:02.135Z,96.42
2017-05-14T01:30:11.349Z,96.32
2017-05-14T01:31:20.314Z,96.42
2017-05-14T01:32:29.273Z,96.22
2017-05-14T01:33:38.237Z,95.94
2017-05-14T01:34:47.192Z,96.13
2017-05-14T01:35:56.452Z,96.47
2017-05-14T01:37:05.411Z,96.42
2017-05-14T01:38:14.371Z,95.7
2017-05-14T01:39:23.386Z,95.79
2017-05-14T01:40:32.347Z,95.89
2017-05-14T01:41:41.553Z,95.51
2017-05-14T01:42:50.509Z,95.6
2017-05-14T01:43:59.470Z,95.51
2017-05-14T01:45:08.429Z,95.79
2017-05-14T01:46:17.393Z,95.89
2017-05-14T01:47:26.653Z,95.98
2017-05-14T01:48:35.667Z,95.6
2017-05-14T01:49:44.635Z,95.98
2017-05-14T01:50:53.603Z,95.89
2017-05-14T01:52:02.559Z,95.79
2017-05-14T01:53:11.821Z,96.27
2017-05-14T01:54:20.797Z,95.89
2017-05-14T01:55:29.754Z,96.37
2017-05-14T01:56:38.713Z,96.56
2017-05-14T01:57:47.676Z,96.27
2017-05-14T01:58:56.887Z,96.37
2017-05-14T02:00:05.843Z,96.37
2017-05-14T02:01:14.809Z,96.37
2017-05-14T02:02:23.772Z,96.37
2017-05-14T02:03:32.734Z,96.56
2017-05-14T02:04:41.942Z,95.89
2017-05-14T02:05:50.905Z,96.56
2017-05-14T02:06:59.874Z,96.37
2017-05-14T02:08:08.832Z,95.98
2017-05-14T02:09:17.795Z,96.18
2017-05-14T02:10:27.054Z,96.27
2017-05-14T02:11:36.015Z,96.18
2017-05-14T02:12:44.980Z,96.56
2017-05-14T02:13:53.938Z,96.27
2017-05-14T02:15:02.896Z,96.47
2017-05-14T02:16:12.152Z,96.75
2017-05-14T02:17:21.109Z,96.37
2017-05-14T02:18:30.067Z,96.37
2017-05-14T02:19:39.037Z,96.56
2017-05-14T02:20:48.040Z,95.98
2017-05-14T02:21:57.250Z,96.18
2017-05-14T02:23:06.211Z,96.18
2017-05-14T02:24:15.192Z,95.79
2017-05-14T02:25:24.473Z,95.98
2017-05-14T02:26:33.438Z,94.84
2017-05-14T02:27:42.657Z,94.35
2017-05-14T02:28:51.624Z,94.64
2017-05-14T02:30:00.587Z,94.4
2017-05-14T02:31:09.542Z,94.69
2017-05-14T02:32:18.501Z,95.46
2017-05-14T02:33:27.755Z,95.46
2017-05-14T02:34:36.716Z,95.36
2017-05-14T02:35:45.673Z,95.31
2017-05-14T02:36:54.635Z,95.7
2017-05-14T02:38:03.596Z,96.03
2017-05-14T02:39:12.857Z,95.79
2017-05-14T02:40:21.813Z,95.79
2017-05-14T02:41:30.772Z,95.75
2017-05-14T02:42:39.740Z,95.89
2017-05-14T02:43:48.704Z,96.37
2017-05-14T02:44:57.927Z,95.94
2017-05-14T02:46:06.892Z,96.51
2017-05-14T02:47:15.846Z,96.27
2017-05-14T02:48:24.801Z,96.22
2017-05-14T02:49:33.768Z,96.32
2017-05-14T02:50:43.029Z,96.27
2017-05-14T02:51:51.990Z,96.37
2017-05-14T02:53:00.950Z,96.22
2017-05-14T02:54:09.914Z,96.47
2017-05-14T02:55:18.873Z,95.98
2017-05-14T02:56:28.127Z,96.56
2017-05-14T02:57:37.091Z,96.75
2017-05-14T02:58:46.057Z,96.47
2017-05-14T02:59:55.346Z,96.32
2017-05-14T03:01:04.306Z,96.13
2017-05-14T03:02:13.563Z,96.08
2017-05-14T03:03:22.561Z,96.18
2017-05-14T03:04:31.517Z,96.18
2017-05-14T03:05:40.479Z,96.13
2017-05-14T03:06:49.439Z,96.75
2017-05-14T03:07:58.652Z,96.84
2017-05-14T03:09:07.612Z,96.56
2017-05-14T03:10:16.573Z,95.98
2017-05-14T03:11:25.533Z,96.18
2017-05-14T03:12:34.494Z,96.03
2017-05-14T03:13:43.712Z,95.94
2017-05-14T03:14:52.675Z,96.56
2017-05-14T03:16:01.678Z,96.22
2017-05-14T03:17:10.644Z,96.42
2017-05-14T03:18:19.605Z,96.99
2017-05-14T03:19:28.864Z,96.32
2017-05-14T03:20:37.823Z,95.94
2017-05-14T03:21:46.784Z,96.13
2017-05-14T03:22:55.747Z,96.13
2017-05-14T03:24:05.033Z,96.13
2017-05-14T03:25:14.245Z,96.22
2017-05-14T03:26:23.290Z,96.13
2017-05-14T03:27:32.249Z,96.32
2017-05-14T03:28:41.226Z,96.13
2017-05-14T03:29:50.193Z,95.75
2017-05-14T03:30:59.402Z,95.79
2017-05-14T03:32:08.356Z,96.37
2017-05-14T03:33:17.311Z,96.32
2017-05-14T03:34:26.276Z,96.32
2017-05-14T03:35:35.237Z,96.42
2017-05-14T03:36:44.445Z,96.08
2017-05-14T03:37:53.402Z,96.42
2017-05-14T03:39:02.364Z,96.37
2017-05-14T03:40:11.322Z,96.22
2017-05-14T03:41:20.277Z,96.18
2017-05-14T03:42:29.487Z,96.22
2017-05-14T03:43:38.445Z,96.47
2017-05-14T03:44:47.408Z,96.27
2017-05-14T03:45:56.380Z,96.13
2017-05-14T03:47:05.349Z,96.13
2017-05-14T03:48:14.555Z,96.56
2017-05-14T03:49:23.520Z,96.56
2017-05-14T03:50:32.485Z,96.22
2017-05-14T03:51:41.447Z,96.37
2017-05-14T03:52:50.407Z,96.32
2017-05-14T03:53:59.630Z,96.32
2017-05-14T03:55:08.591Z,95.89
2017-05-14T03:56:17.553Z,95.41
2017-05-14T03:57:26.517Z,95.56
2017-05-14T03:58:35.475Z,95.65
2017-05-14T03:59:44.732Z,95.98
2017-05-14T04:00:53.738Z,95.56
2017-05-14T04:02:02.692Z,95.84
2017-05-14T04:03:11.651Z,95.84
2017-05-14T04:04:20.607Z,95.84
2017-05-14T04:05:29.815Z,95.94
2017-05-14T04:06:38.768Z,95.7
2017-05-14T04:07:47.731Z,95.56
2017-05-14T04:08:56.696Z,95.07
2017-05-14T04:10:05.658Z,95.56
2017-05-14T04:11:14.863Z,95.46
2017-05-14T04:12:23.819Z,95.17
2017-05-14T04:13:32.780Z,95.46
2017-05-14T04:14:41.746Z,96.03
2017-05-14T04:15:50.710Z,95.65
2017-05-14T04:17:00.247Z,95.65
2017-05-14T04:18:09.210Z,95.94
2017-05-14T04:19:18.186Z,95.7
2017-05-14T04:20:27.199Z,95.89
2017-05-14T04:21:36.155Z,95.7
2017-05-14T04:22:45.370Z,95.65
2017-05-14T04:23:54.374Z,96.27
2017-05-14T04:25:03.335Z,95.79
2017-05-14T04:26:12.298Z,95.84
2017-05-14T04:27:21.256Z,95.94
2017-05-14T04:28:30.559Z,96.51
2017-05-14T04:29:39.525Z,96.27
2017-05-14T04:30:48.480Z,96.27
2017-05-14T04:31:57.437Z,96.56
2017-05-14T04:33:06.404Z,96.56
2017-05-14T04:34:15.611Z,96.37
2017-05-14T04:35:24.573Z,96.47
2017-05-14T04:36:33.539Z,96.37
2017-05-14T04:37:42.501Z,96.47
2017-05-14T04:38:51.464Z,96.56
2017-05-14T04:40:00.675Z,96.37
2017-05-14T04:41:09.634Z,96.37
2017-05-14T04:42:18.589Z,96.56
2017-05-14T04:43:27.551Z,96.47
2017-05-14T04:44:36.508Z,96.18
2017-05-14T04:45:45.722Z,96.27
2017-05-14T04:46:55.016Z,96.47
2017-05-14T04:48:03.976Z,96.27
2017-05-14T04:49:12.939Z,96.27
2017-05-14T04:50:21.898Z,96.37
2017-05-14T04:51:31.103Z,96.37
2017-05-14T04:52:40.063Z,96.56
2017-05-14T04:53:49.023Z,96.37
2017-05-14T04:54:57.994Z,96.37
2017-05-14T04:56:06.946Z,96.56
2017-05-14T04:57:16.161Z,96.37
2017-05-14T04:58:25.124Z,96.18
2017-05-14T04:59:34.085Z,95.89
2017-05-14T05:00:43.044Z,96.66
2017-05-14T05:01:52.006Z,95.89
2017-05-14T05:03:01.215Z,95.89
2017-05-14T05:04:10.211Z,96.37
2017-05-14T05:05:19.181Z,95.31
2017-05-14T05:06:28.137Z,94.64
2017-05-14T05:07:37.098Z,95.51
2017-05-14T05:08:46.312Z,95.51
2017-05-14T05:09:55.597Z,95.12
2017-05-14T05:11:04.560Z,94.45
2017-05-14T05:12:13.521Z,94.26
2017-05-14T05:13:22.523Z,94.17
2017-05-14T05:14:31.728Z,93.98
2017-05-14T05:15:40.689Z,94.93
2017-05-14T05:16:49.645Z,94.07
2017-05-14T05:17:58.602Z,93.59
2017-05-14T05:19:07.556Z,93.78
2017-05-14T05:20:16.766Z,93.98
2017-05-14T05:21:25.724Z,93.88
2017-05-14T05:22:34.706Z,93.59
2017-05-14T05:23:43.989Z,93.78
2017-05-14T05:24:52.948Z,93.3
2017-05-14T05:26:02.159Z,92.73
2017-05-14T05:27:11.129Z,93.21
2017-05-14T05:28:20.090Z,92.82
2017-05-14T05:29:29.048Z,93.59
2017-05-14T05:30:38.009Z,94.07
2017-05-14T05:31:47.216Z,93.88
2017-05-14T05:32:56.174Z,93.88
2017-05-14T05:34:05.138Z,93.21
2017-05-14T05:35:14.103Z,93.49
2017-05-14T05:36:23.061Z,93.02
2017-05-14T05:37:32.627Z,93.3
2017-05-14T05:38:41.589Z,92.82
2017-05-14T05:39:50.566Z,93.21
2017-05-14T05:40:59.526Z,93.11
2017-05-14T05:42:08.480Z,92.82
2017-05-14T05:43:17.738Z,93.59
2017-05-14T05:44:26.701Z,93.69
2017-05-14T05:45:35.662Z,92.82
2017-05-14T05:46:45.027Z,92.25
2017-05-14T05:47:53.981Z,92.15
2017-05-14T05:49:18.052Z,92.63
2017-05-14T05:50:27.025Z,93.02
2017-05-14T05:51:35.986Z,93.02
2017-05-14T05:52:44.948Z,92.73
2017-05-14T05:53:53.907Z,92.15
2017-05-14T05:55:03.162Z,92.54
2017-05-14T05:56:12.125Z,92.15
2017-05-14T05:57:21.085Z,92.25
2017-05-14T05:58:30.045Z,92.15
2017-05-14T05:59:39.004Z,91.49
2017-05-14T06:00:48.264Z,91.96
2017-05-14T06:01:57.225Z,92.44
2017-05-14T06:03:06.191Z,92.73
2017-05-14T06:04:15.145Z,92.06
2017-05-14T06:05:24.104Z,91.96
2017-05-14T06:06:33.316Z,91.49
2017-05-14T06:07:42.316Z,91.77
2017-05-14T06:08:51.598Z,91.91
2017-05-14T06:10:00.550Z,91.82
2017-05-14T06:11:09.507Z,91.82
2017-05-14T06:12:18.721Z,91.14
2017-05-14T06:13:27.675Z,91.63
2017-05-14T06:14:36.640Z,91.82
2017-05-14T06:15:45.594Z,92.01
2017-05-14T06:16:54.551Z,91.34
2017-05-14T06:18:03.765Z,90.95
2017-05-14T06:19:12.728Z,91.91
2017-05-14T06:20:21.689Z,91.34
2017-05-14T06:21:30.647Z,91.05
2017-05-14T06:22:39.612Z,90.28
2017-05-14T06:23:48.878Z,90
2017-05-14T06:24:57.843Z,90.38
2017-05-14T06:26:06.805Z,90.76
2017-05-14T06:27:15.766Z,90.19
2017-05-14T06:28:24.724Z,90.09
2017-05-14T06:29:33.933Z,90.09
2017-05-14T06:30:42.970Z,89.61
2017-05-14T06:31:51.932Z,90.09
2017-05-14T06:33:00.892Z,90.14
2017-05-14T06:34:09.850Z,88.6
2017-05-14T06:35:19.061Z,88.89
2017-05-14T06:36:28.022Z,88.98
2017-05-14T06:37:36.978Z,89.37
2017-05-14T06:38:45.932Z,89.32
2017-05-14T06:39:55.222Z,88.98
2017-05-14T06:41:04.437Z,88.6
2017-05-14T06:42:13.398Z,89.27
2017-05-14T06:43:22.366Z,88.7
2017-05-14T06:44:31.336Z,88.79
2017-05-14T06:45:40.292Z,88.31
2017-05-14T06:46:49.510Z,88.7
2017-05-14T06:47:58.793Z,88.7
2017-05-14T06:49:07.753Z,88.41
2017-05-14T06:50:16.712Z,88.41
2017-05-14T06:51:25.991Z,88.79
2017-05-14T06:52:35.201Z,87.93
2017-05-14T06:53:44.157Z,87.78
2017-05-14T06:54:53.117Z,87.68
2017-05-14T06:56:02.080Z,88.17
2017-05-14T06:57:11.034Z,87.84
2017-05-14T06:58:20.245Z,87.68
2017-05-14T06:59:29.207Z,87.78
2017-05-14T07:00:38.212Z,87.4
2017-05-14T07:01:47.172Z,87.59
2017-05-14T07:02:56.128Z,87.3
2017-05-14T07:04:05.387Z,87.11
2017-05-14T07:05:14.346Z,86.92
2017-05-14T07:06:23.353Z,86.92
2017-05-14T07:07:32.315Z,86.63
2017-05-14T07:08:41.281Z,85.67
2017-05-14T07:09:50.493Z,84.81
2017-05-14T07:10:59.450Z,84.61
2017-05-14T07:12:08.419Z,84.81
2017-05-14T07:13:17.375Z,84.81
2017-05-14T07:14:26.335Z,84.81
2017-05-14T07:15:35.545Z,84.42
2017-05-14T07:16:44.506Z,83.94
2017-05-14T07:17:53.469Z,83.98
2017-05-14T07:19:02.428Z,82.84
2017-05-14T07:20:11.389Z,81.68
2017-05-14T07:21:20.600Z,82.26
2017-05-14T07:22:29.561Z,82.16
2017-05-14T07:23:38.523Z,81.3
2017-05-14T07:24:47.492Z,81.4
2017-05-14T07:25:56.452Z,81.78
2017-05-14T07:27:05.714Z,81.59
2017-05-14T07:28:14.681Z,80.91
2017-05-14T07:29:23.648Z,80.57
2017-05-14T07:30:32.603Z,80.63
2017-05-14T07:31:41.562Z,79.71
2017-05-14T07:32:50.868Z,80.28
2017-05-14T07:33:59.826Z,79.32
2017-05-14T07:35:08.791Z,79.03
2017-05-14T07:36:17.746Z,79.32
2017-05-14T07:37:26.711Z,79.22
2017-05-14T07:38:35.920Z,78.55
2017-05-14T07:39:44.886Z,78.55
2017-05-14T07:40:53.840Z,78.59
2017-05-14T07:42:02.796Z,78.5
2017-05-14T07:43:12.107Z,78.3
2017-05-14T07:44:21.319Z,77.83
2017-05-14T07:45:30.280Z,77.15
2017-05-14T07:46:39.241Z,77.06
2017-05-14T07:47:48.199Z,76.86
2017-05-14T07:48:57.165Z,76.57
2017-05-14T07:50:06.472Z,76.52
2017-05-14T07:51:15.430Z,76.32
2017-05-14T07:52:24.476Z,76.14
2017-05-14T07:53:33.610Z,76.23
2017-05-14T07:54:42.574Z,75.84
2017-05-14T07:55:51.784Z,75.17
2017-05-14T07:57:00.750Z,74.69
2017-05-14T07:58:09.709Z,74.3
2017-05-14T07:59:18.665Z,74.34
2017-05-14T08:00:27.630Z,74.4
2017-05-14T08:01:36.839Z,74.54
2017-05-14T08:02:45.803Z,74.34
2017-05-14T08:03:55.096Z,74.34
2017-05-14T08:05:04.061Z,72.61
2017-05-14T08:06:13.028Z,72.23
2017-05-14T08:07:22.238Z,72.23
2017-05-14T08:08:31.242Z,71.84
2017-05-14T08:09:40.198Z,71.4
2017-05-14T08:10:49.197Z,70.98
2017-05-14T08:11:58.201Z,70.01
2017-05-14T08:13:07.410Z,70.59
2017-05-14T08:14:16.462Z,70.92
2017-05-14T08:15:25.424Z,70.43
2017-05-14T08:16:34.475Z,69.28
2017-05-14T08:17:43.439Z,69.09
2017-05-14T08:18:52.651Z,69.85
2017-05-14T08:20:01.699Z,68.41
2017-05-14T08:21:10.749Z,68.41
2017-05-14T08:22:19.714Z,68.41
2017-05-14T08:23:28.679Z,68.32
2017-05-14T08:24:37.890Z,67.93
2017-05-14T08:25:46.855Z,68.03
2017-05-14T08:26:55.816Z,67.65
2017-05-14T08:28:04.785Z,66.3
2017-05-14T08:29:13.838Z,66.39
2017-05-14T08:30:23.049Z,67.16
2017-05-14T08:31:32.008Z,66.88
2017-05-14T08:32:40.971Z,66.62
2017-05-14T08:33:49.939Z,66.33
2017-05-14T08:34:59.225Z,66.33
2017-05-14T08:36:08.434Z,66.04
2017-05-14T08:37:17.398Z,65.17
2017-05-14T08:38:26.360Z,65.56
2017-05-14T08:39:35.325Z,65.17
2017-05-14T08:40:44.287Z,63.95
2017-05-14T08:41:53.500Z,63.54
2017-05-14T08:43:02.464Z,63.09
2017-05-14T08:44:11.428Z,61.93
2017-05-14T08:45:20.391Z,61.55
2017-05-14T08:46:29.444Z,61.74
2017-05-14T08:47:38.654Z,62.22
2017-05-14T08:48:47.612Z,62.32
2017-05-14T08:49:56.574Z,62.32
2017-05-14T08:51:05.542Z,62.6
2017-05-14T08:52:14.512Z,61.48
2017-05-14T08:53:23.771Z,61
2017-05-14T08:54:32.736Z,61.1
2017-05-14T08:55:41.694Z,60.71
2017-05-14T08:56:50.653Z,60.42
2017-05-14T08:57:59.613Z,60.42
2017-05-14T08:59:08.580Z,60.13
2017-05-14T09:00:17.541Z,60.23
2017-05-14T09:01:26.503Z,60.52
2017-05-14T09:02:35.473Z,61.29
2017-05-14T09:03:44.438Z,61.1
2017-05-14T09:04:53.651Z,61.1
2017-05-14T09:06:02.609Z,60.9
2017-05-14T09:07:11.572Z,60.32
2017-05-14T09:08:20.535Z,60.52
2017-05-14T09:09:29.497Z,60.32
2017-05-14T09:10:38.709Z,60.13
2017-05-14T09:11:47.675Z,59.75
2017-05-14T09:12:56.635Z,60.32
2017-05-14T09:14:05.610Z,60.61
2017-05-14T09:15:14.569Z,60.42
2017-05-14T09:16:23.781Z,60.61
2017-05-14T09:17:32.832Z,61.1
2017-05-14T09:18:41.797Z,61
2017-05-14T09:19:50.757Z,61.29
2017-05-14T09:20:59.725Z,60.23
2017-05-14T09:22:08.985Z,60.52
2017-05-14T09:23:18.288Z,60.32
2017-05-14T09:24:27.253Z,60.32
2017-05-14T09:25:36.216Z,59.87
2017-05-14T09:26:45.192Z,59.58
2017-05-14T09:27:54.406Z,59.75
2017-05-14T09:29:03.364Z,59.68
2017-05-14T09:30:12.324Z,59.87
2017-05-14T09:31:21.287Z,59.78
2017-05-14T09:32:30.307Z,60.45
2017-05-14T09:33:39.609Z,60.35
2017-05-14T09:34:48.569Z,60.55
2017-05-14T09:35:57.858Z,60.45
2017-05-14T09:37:06.823Z,60.64
2017-05-14T09:38:15.790Z,60.35
2017-05-14T09:39:25.089Z,60.55
2017-05-14T09:40:34.049Z,60.28
2017-05-14T09:41:43.013Z,60.28
2017-05-14T09:42:52.061Z,60.58
2017-05-14T09:44:01.037Z,60.28
2017-05-14T09:45:10.249Z,60.28
2017-05-14T09:46:19.215Z,59.9
2017-05-14T09:47:28.179Z,60
2017-05-14T09:48:37.232Z,60.38
2017-05-14T09:49:46.205Z,60.58
2017-05-14T09:50:55.750Z,59.8
2017-05-14T09:52:04.717Z,59.52
2017-05-14T09:53:13.679Z,58.87
2017-05-14T09:54:22.638Z,58.68
2017-05-14T09:55:31.602Z,58.19
2017-05-14T09:56:40.810Z,57.9
2017-05-14T09:57:49.779Z,56.94
2017-05-14T09:58:58.741Z,56.26
2017-05-14T10:00:07.797Z,55.88
2017-05-14T10:01:16.763Z,56.07
2017-05-14T10:02:25.973Z,55.88
2017-05-14T10:03:34.936Z,55.78
2017-05-14T10:04:43.902Z,55.78
2017-05-14T10:05:53.194Z,56.16
2017-05-14T10:07:02.163Z,55.78
2017-05-14T10:08:11.377Z,55.88
2017-05-14T10:09:20.340Z,55.78
2017-05-14T10:10:29.302Z,55.68
2017-05-14T10:11:38.368Z,56.07
2017-05-14T10:12:47.327Z,55.98
2017-05-14T10:13:56.546Z,55.68
2017-05-14T10:15:05.514Z,55.68
2017-05-14T10:16:14.522Z,54.36
2017-05-14T10:17:23.484Z,54.07
2017-05-14T10:18:32.450Z,53.78
2017-05-14T10:19:41.660Z,53.97
2017-05-14T10:20:50.628Z,54.27
2017-05-14T10:21:59.589Z,54.17
2017-05-14T10:23:08.551Z,54.36
2017-05-14T10:24:17.556Z,54.84
2017-05-14T10:25:26.783Z,54.55
2017-05-14T10:26:35.747Z,54.55
2017-05-14T10:27:44.804Z,54.17
2017-05-14T10:28:53.767Z,54.46
2017-05-14T10:30:02.732Z,54.19
2017-05-14T10:31:11.945Z,53.52
2017-05-14T10:32:20.911Z,53.69
2017-05-14T10:33:29.877Z,53.78
2017-05-14T10:34:38.843Z,54.36
2017-05-14T10:35:47.818Z,54.75
2017-05-14T10:36:57.031Z,55.04
2017-05-14T10:38:05.994Z,55.71
2017-05-14T10:39:14.953Z,56
2017-05-14T10:40:23.930Z,55.62
2017-05-14T10:41:32.891Z,55.33
2017-05-14T10:42:42.189Z,55.04
2017-05-14T10:43:51.155Z,55.04
2017-05-14T10:45:00.117Z,54.84
2017-05-14T10:46:09.171Z,53.78
2017-05-14T10:47:18.140Z,53.13
2017-05-14T10:48:27.360Z,51.39
2017-05-14T10:49:36.326Z,51.59
2017-05-14T10:50:45.293Z,51.78
2017-05-14T10:51:54.254Z,52.36
2017-05-14T10:53:03.214Z,53.03
2017-05-14T10:54:12.753Z,53.52
2017-05-14T10:55:21.723Z,53.23
2017-05-14T10:56:31.023Z,53.81
2017-05-14T10:57:39.985Z,53.3
2017-05-14T10:58:49.040Z,53.81
2017-05-14T10:59:58.254Z,53.52
2017-05-14T11:01:07.223Z,53.71
2017-05-14T11:02:16.192Z,53.23
2017-05-14T11:03:25.160Z,52.36
2017-05-14T11:04:34.125Z,52.84
2017-05-14T11:05:43.337Z,52.75
2017-05-14T11:06:52.302Z,51.81
2017-05-14T11:08:01.271Z,51.81
2017-05-14T11:09:10.235Z,51.51
2017-05-14T11:10:19.198Z,51.9
2017-05-14T11:11:28.416Z,51.51
2017-05-14T11:12:37.380Z,51.61
2017-05-14T11:13:46.440Z,50.65
2017-05-14T11:14:55.404Z,50.84
2017-05-14T11:16:04.366Z,50.48
2017-05-14T11:17:13.579Z,49.58
2017-05-14T11:18:22.544Z,49.99
2017-05-14T11:19:31.510Z,49.6
2017-05-14T11:20:40.472Z,49.8
2017-05-14T11:21:49.526Z,49.97
2017-05-14T11:22:58.742Z,50.38
2017-05-14T11:24:07.702Z,49.6
2017-05-14T11:25:16.994Z,49.51
2017-05-14T11:26:25.958Z,48.52
2017-05-14T11:27:34.926Z,48.71
2017-05-14T11:28:44.140Z,49.1
2017-05-14T11:29:53.141Z,48.52
2017-05-14T11:31:02.104Z,48.23
2017-05-14T11:32:11.120Z,48.23
2017-05-14T11:33:20.086Z,48.42
2017-05-14T11:34:29.305Z,47.94
2017-05-14T11:35:38.268Z,47.65
2017-05-14T11:36:47.230Z,47.45
2017-05-14T11:37:56.192Z,47.94
2017-05-14T11:39:05.482Z,47.94
2017-05-14T11:40:14.707Z,48.11
2017-05-14T11:41:23.671Z,48.32
2017-05-14T11:42:32.637Z,47.65
2017-05-14T11:43:41.605Z,47.55
2017-05-14T11:44:50.567Z,47.07
2017-05-14T11:45:59.781Z,46.68
2017-05-14T11:47:08.748Z,46.88
2017-05-14T11:48:17.712Z,47.07
2017-05-14T11:49:26.771Z,46.97
2017-05-14T11:50:35.736Z,46.68
2017-05-14T11:51:45.003Z,47.19
2017-05-14T11:52:53.972Z,46.8
2017-05-14T11:54:02.936Z,46.12
2017-05-14T11:55:11.899Z,46.2
2017-05-14T11:56:20.859Z,46
2017-05-14T11:57:30.075Z,45.81
2017-05-14T11:58:39.051Z,46.1
2017-05-14T11:59:48.063Z,45.33
2017-05-14T12:00:57.075Z,44.94
2017-05-14T12:02:06.124Z,44.75
2017-05-14T12:03:15.339Z,44.75
2017-05-14T12:04:24.306Z,44.65
2017-05-14T12:05:33.273Z,45.33
2017-05-14T12:06:42.237Z,45.91
2017-05-14T12:07:51.203Z,46
2017-05-14T12:09:00.418Z,46
2017-05-14T12:10:09.383Z,46.2
2017-05-14T12:11:18.353Z,46.3
2017-05-14T12:12:27.328Z,45.91
2017-05-14T12:13:36.290Z,46.1
2017-05-14T12:14:45.503Z,46.2
2017-05-14T12:15:54.795Z,46.1
2017-05-14T12:17:03.758Z,46.49
2017-05-14T12:18:12.734Z,47.16
2017-05-14T12:19:21.705Z,48.03
2017-05-14T12:20:30.921Z,48.01
2017-05-14T12:21:39.989Z,48.49
2017-05-14T12:22:48.953Z,48.59
2017-05-14T12:23:57.918Z,48.97
2017-05-14T12:25:06.885Z,48.88
2017-05-14T12:26:16.097Z,48.69
2017-05-14T12:27:25.102Z,48.79
2017-05-14T12:28:34.066Z,48.59
2017-05-14T12:29:43.113Z,48.88
2017-05-14T12:30:52.071Z,48.88
2017-05-14T12:32:01.282Z,48.95
2017-05-14T12:33:10.246Z,48.76
2017-05-14T12:34:19.217Z,49.05
2017-05-14T12:35:28.182Z,49.44
2017-05-14T12:36:37.146Z,49.63
2017-05-14T12:37:46.360Z,50.11
2017-05-14T12:38:55.327Z,50.21
2017-05-14T12:40:04.292Z,50.79
2017-05-14T12:41:13.264Z,50.59
2017-05-14T12:42:22.235Z,50.59
2017-05-14T12:43:31.453Z,50.59
2017-05-14T12:44:40.416Z,50.59
2017-05-14T12:45:49.393Z,50.59
2017-05-14T12:46:58.362Z,50.98
2017-05-14T12:48:07.338Z,50.59
2017-05-14T12:49:16.558Z,50.67
2017-05-14T12:50:25.855Z,50.47
2017-05-14T12:51:34.908Z,50.76
2017-05-14T12:52:43.873Z,51.05
2017-05-14T12:53:52.930Z,51.07
2017-05-14T12:55:02.149Z,51.44
2017-05-14T12:56:11.115Z,51.15
2017-05-14T12:57:20.078Z,51.34
2017-05-14T12:58:29.129Z,51.53
2017-05-14T12:59:38.100Z,51.44
2017-05-14T13:00:47.361Z,51.15
2017-05-14T13:01:56.326Z,50.67
2017-05-14T13:03:05.377Z,50.47
2017-05-14T13:04:14.661Z,50.47
2017-05-14T13:05:23.628Z,50.57
2017-05-14T13:06:33.161Z,50.76
2017-05-14T13:07:42.158Z,51.25
2017-05-14T13:08:51.119Z,51.34
2017-05-14T13:10:00.086Z,52.21
2017-05-14T13:11:09.049Z,51.73
2017-05-14T13:12:18.355Z,52.5
2017-05-14T13:13:27.402Z,52.57
2017-05-14T13:14:36.367Z,52.37
2017-05-14T13:15:45.339Z,52.28
2017-05-14T13:16:54.304Z,52.67
2017-05-14T13:18:03.517Z,52.57
2017-05-14T13:19:12.483Z,52.57
2017-05-14T13:20:21.441Z,52.86
2017-05-14T13:21:30.405Z,53.34
2017-05-14T13:22:39.367Z,53.61
2017-05-14T13:23:48.582Z,53.63
2017-05-14T13:24:57.548Z,54.18
2017-05-14T13:26:06.516Z,54.96
2017-05-14T13:27:15.492Z,55.73
2017-05-14T13:28:24.456Z,56.01
2017-05-14T13:29:33.669Z,56.11
2017-05-14T13:30:42.720Z,55.82
2017-05-14T13:31:51.685Z,56.21
2017-05-14T13:33:00.649Z,56.98
2017-05-14T13:34:09.611Z,56.57
2017-05-14T13:35:18.966Z,57.05
2017-05-14T13:36:27.926Z,57.72
2017-05-14T13:37:36.895Z,57.53
2017-05-14T13:38:46.191Z,57.82
2017-05-14T13:39:55.155Z,57.53
2017-05-14T13:41:04.421Z,57.62
2017-05-14T13:42:13.381Z,57.79
2017-05-14T13:43:22.346Z,57.98
2017-05-14T13:44:31.309Z,57.69
2017-05-14T13:45:40.277Z,57.6
2017-05-14T13:46:49.491Z,57.4
2017-05-14T13:47:58.458Z,58.27
2017-05-14T13:49:07.423Z,58.17
2017-05-14T13:50:16.388Z,58.27
2017-05-14T13:51:25.354Z,57.98
2017-05-14T13:52:34.659Z,58.47
2017-05-14T13:53:43.950Z,58.27
2017-05-14T13:54:52.914Z,58.37
2017-05-14T13:56:01.879Z,58.65
2017-05-14T13:57:10.844Z,58.47
2017-05-14T13:58:20.106Z,58.27
2017-05-14T13:59:29.072Z,58.56
2017-05-14T14:00:38.038Z,58.65
2017-05-14T14:01:47.009Z,58.37
2017-05-14T14:02:55.974Z,58.85
2017-05-14T14:04:05.187Z,59.14
2017-05-14T14:05:14.244Z,59.33
2017-05-14T14:06:23.225Z,59.91
2017-05-14T14:07:32.511Z,60.68
2017-05-14T14:08:41.471Z,60.75
2017-05-14T14:09:50.686Z,61.74
2017-05-14T14:10:59.782Z,62.32
2017-05-14T14:12:09.070Z,64.89
2017-05-14T14:13:18.075Z,66.33
2017-05-14T14:14:27.037Z,69.02
2017-05-14T14:15:36.250Z,69.95
2017-05-14T14:16:45.215Z,71.59
2017-05-14T14:17:54.180Z,70.92
2017-05-14T14:19:03.468Z,71.69
2017-05-14T14:20:12.518Z,73.38
2017-05-14T14:21:21.821Z,75.4
2017-05-14T14:22:30.782Z,77.76
2017-05-14T14:23:39.741Z,79.4
2017-05-14T14:24:48.698Z,80.07
2017-05-14T14:25:57.659Z,81.52
2017-05-14T14:27:06.964Z,84.69
2017-05-14T14:28:15.922Z,85.94
2017-05-14T14:29:24.884Z,87.48
2017-05-14T14:30:33.842Z,88.34
2017-05-14T14:31:42.894Z,88.63
2017-05-14T14:32:52.440Z,90.12
2017-05-14T14:34:01.402Z,91.37
2017-05-14T14:35:10.455Z,92.05
2017-05-14T14:36:19.420Z,92.05
2017-05-14T14:37:28.383Z,92.14
2017-05-14T14:38:37.598Z,92.62
2017-05-14T14:39:46.560Z,92.14
2017-05-14T14:40:55.517Z,93.68
2017-05-14T14:42:04.479Z,92.62
2017-05-14T14:43:13.446Z,91.28
2017-05-14T14:44:22.699Z,90.66
2017-05-14T14:45:31.668Z,92.1
2017-05-14T14:46:40.631Z,94.01
2017-05-14T14:47:49.596Z,94.11
2017-05-14T14:48:58.556Z,94.01
2017-05-14T14:50:07.774Z,94.31
2017-05-14T14:51:16.739Z,93.54
2017-05-14T14:52:25.705Z,94.01